Time;durP1;ratioP1;P1;durP2;ratioP2;P2;SDS_P1;SDS_P2;PMS_P1;PMS_P2;Temp;Humidity;BMP_temperature;BMP_pressure;BME280_temperature;BME280_humidity;BME280_pressure;Samples;Min_cycle;Max_cycle;Signal;HPM_P1;HPM_P2
2022/10/15 00:01:10;;;;;;;12.63;9.70;;;15.70;99.90;;;;;;5012132;28;20030;-58
2022/10/15 00:03:56;;;;;;;11.70;9.82;;;15.80;99.90;;;;;;4998570;28;20034;-58
2022/10/15 00:06:42;;;;;;;10.45;8.80;;;15.70;99.90;;;;;;5012566;28;20494;-58
2022/10/15 00:09:28;;;;;;;10.07;8.85;;;15.80;99.90;;;;;;5012938;28;20252;-57
2022/10/15 00:12:14;;;;;;;10.95;9.38;;;15.80;99.90;;;;;;5012920;28;20498;-57
2022/10/15 00:15:00;;;;;;;13.52;8.98;;;15.80;99.90;;;;;;4994247;28;20101;-59
2022/10/15 00:17:46;;;;;;;9.82;8.32;;;15.80;99.90;;;;;;4996704;28;20034;-55
2022/10/15 00:20:33;;;;;;;9.98;8.65;;;15.80;99.90;;;;;;5013047;28;20117;-60
2022/10/15 00:23:19;;;;;;;9.57;8.38;;;15.80;99.90;;;;;;5011719;28;20116;-59
2022/10/15 00:26:08;;;;;;;9.25;8.38;;;15.90;99.90;;;;;;5012428;28;20030;-59
2022/10/15 00:28:57;;;;;;;8.82;8.00;;;15.90;99.90;;;;;;5011730;28;20394;-60
2022/10/15 00:31:43;;;;;;;10.43;8.23;;;15.90;99.90;;;;;;5011351;28;20568;-56
2022/10/15 00:34:29;;;;;;;9.93;8.30;;;15.90;99.90;;;;;;5011153;28;20418;-59
2022/10/15 00:37:16;;;;;;;8.75;7.88;;;15.90;99.90;;;;;;5011040;28;20044;-60
2022/10/15 00:40:02;;;;;;;9.93;8.10;;;15.90;99.90;;;;;;5011940;28;20125;-60
2022/10/15 00:42:48;;;;;;;8.20;7.43;;;15.90;99.90;;;;;;5011426;28;20030;-59
2022/10/15 00:45:34;;;;;;;9.13;8.18;;;16.00;99.90;;;;;;5011291;28;20041;-59
2022/10/15 00:48:30;;;;;;;9.00;7.45;;;16.00;99.90;;;;;;4997388;28;20100;-57
2022/10/15 00:51:18;;;;;;;8.18;7.38;;;16.00;99.90;;;;;;5011608;28;20033;-60
2022/10/15 00:54:04;;;;;;;9.90;6.80;;;16.00;99.90;;;;;;5011442;28;20029;-58
2022/10/15 00:56:50;;;;;;;7.88;6.63;;;16.00;99.90;;;;;;5011040;28;20026;-60
2022/10/15 00:59:41;;;;;;;8.40;6.10;;;16.00;99.90;;;;;;5010376;28;20094;-60
2022/10/15 01:02:27;;;;;;;6.70;6.03;;;15.90;99.90;;;;;;4996598;28;20030;-56
2022/10/15 01:05:15;;;;;;;10.07;6.20;;;15.90;99.90;;;;;;5011743;28;20026;-57
2022/10/15 01:08:01;;;;;;;7.03;5.68;;;15.90;99.90;;;;;;5010811;28;20513;-58
2022/10/15 01:10:58;;;;;;;7.90;6.10;;;15.90;99.90;;;;;;5011735;28;20018;-59
2022/10/15 01:14:08;;;;;;;8.15;5.85;;;15.90;99.90;;;;;;5011142;28;20061;-59
2022/10/15 01:17:09;;;;;;;5.93;5.32;;;15.90;99.90;;;;;;5009995;28;20078;-57
2022/10/15 01:20:29;;;;;;;6.85;5.60;;;15.80;99.90;;;;;;5011339;28;20070;-58
2022/10/15 01:23:19;;;;;;;7.18;5.22;;;15.80;99.90;;;;;;5010973;28;20058;-56
2022/10/15 01:26:50;;;;;;;6.88;5.57;;;15.90;99.90;;;;;;5010729;28;20038;-59
2022/10/15 01:29:51;;;;;;;7.72;5.82;;;15.80;99.90;;;;;;5010901;28;20034;-57
2022/10/15 01:33:08;;;;;;;6.85;6.07;;;15.70;99.90;;;;;;5011027;28;20494;-59
2022/10/15 01:36:06;;;;;;;6.35;5.75;;;15.70;99.90;;;;;;5011111;28;20026;-60
2022/10/15 01:39:22;;;;;;;8.23;6.53;;;15.70;99.90;;;;;;5010619;28;20029;-60
2022/10/15 01:42:24;;;;;;;6.60;5.70;;;15.80;99.90;;;;;;5001349;28;20439;-60
2022/10/15 01:45:18;;;;;;;10.52;6.63;;;15.80;99.90;;;;;;4990928;28;20495;-60
2022/10/15 01:48:09;;;;;;;7.38;6.40;;;15.80;99.90;;;;;;5001410;28;20037;-60
2022/10/15 01:50:59;;;;;;;7.07;6.30;;;15.80;99.90;;;;;;5013270;28;20113;-58
2022/10/15 01:53:46;;;;;;;7.07;6.38;;;15.80;99.90;;;;;;5013974;28;20034;-58
2022/10/15 01:56:35;;;;;;;7.00;6.40;;;15.80;99.90;;;;;;5014256;28;20491;-59
2022/10/15 01:59:28;;;;;;;8.25;6.80;;;15.90;99.90;;;;;;5013895;28;20026;-59
2022/10/15 02:02:14;;;;;;;7.55;6.85;;;15.80;99.90;;;;;;5013908;28;20486;-60
2022/10/15 02:05:00;;;;;;;7.30;6.45;;;15.80;99.90;;;;;;4995448;28;20034;-59
2022/10/15 02:08:08;;;;;;;7.30;6.60;;;15.80;99.90;;;;;;4997307;28;20498;-60
2022/10/15 02:11:05;;;;;;;9.45;6.50;;;15.80;99.90;;;;;;5014150;28;20116;-58
2022/10/15 02:14:02;;;;;;;8.82;7.40;;;15.80;99.90;;;;;;5013892;28;20520;-60
2022/10/15 02:17:10;;;;;;;6.68;5.97;;;15.80;99.90;;;;;;5013277;28;20057;-57
2022/10/15 02:20:05;;;;;;;8.48;6.45;;;15.80;99.90;;;;;;5014273;28;20022;-59
2022/10/15 02:23:02;;;;;;;8.02;6.75;;;15.80;99.90;;;;;;5013937;28;20026;-59
2022/10/15 02:25:51;;;;;;;6.38;5.70;;;15.80;99.90;;;;;;5013992;28;20461;-59
2022/10/15 02:28:40;;;;;;;7.15;6.20;;;15.70;99.90;;;;;;5013455;28;20022;-60
2022/10/15 02:31:30;;;;;;;6.47;5.85;;;15.70;99.90;;;;;;5014357;28;20026;-60
2022/10/15 02:34:21;;;;;;;7.18;5.95;;;15.70;99.90;;;;;;5013985;28;20033;-59
2022/10/15 02:37:08;;;;;;;7.60;6.28;;;15.70;99.90;;;;;;4999124;28;20109;-59
2022/10/15 02:39:54;;;;;;;7.25;6.60;;;15.70;99.90;;;;;;4994402;28;20034;-57
2022/10/15 02:42:40;;;;;;;6.80;5.90;;;15.70;99.90;;;;;;4998268;28;20022;-59
2022/10/15 02:45:26;;;;;;;7.63;6.07;;;15.70;99.90;;;;;;5013793;28;20379;-59
2022/10/15 02:48:12;;;;;;;7.10;6.18;;;15.70;99.90;;;;;;5013618;28;20388;-58
2022/10/15 02:50:58;;;;;;;7.00;6.20;;;15.70;99.90;;;;;;5013163;28;20089;-55
2022/10/15 02:53:44;;;;;;;7.20;6.50;;;15.70;99.90;;;;;;5012702;28;20048;-57
2022/10/15 02:56:30;;;;;;;7.47;6.13;;;15.80;99.90;;;;;;5013804;28;20049;-59
2022/10/15 02:59:18;;;;;;;8.20;7.35;;;15.80;99.90;;;;;;5012847;28;20061;-58
2022/10/15 03:02:04;;;;;;;7.47;6.40;;;15.80;99.90;;;;;;5011629;28;20111;-59
2022/10/15 03:04:50;;;;;;;7.13;6.43;;;15.80;99.90;;;;;;5013123;28;20034;-59
2022/10/15 03:07:36;;;;;;;7.85;6.82;;;15.80;99.90;;;;;;5011492;28;20506;-56
2022/10/15 03:10:22;;;;;;;8.38;7.13;;;15.80;99.90;;;;;;5012489;28;20462;-59
2022/10/15 03:13:08;;;;;;;9.27;6.32;;;15.80;99.90;;;;;;5011750;28;20030;-58
2022/10/15 03:15:55;;;;;;;7.72;6.07;;;15.90;99.90;;;;;;5012572;28;20034;-59
2022/10/15 03:18:40;;;;;;;6.80;6.18;;;15.80;99.90;;;;;;5012139;28;20052;-58
2022/10/15 03:21:29;;;;;;;6.70;6.00;;;15.90;99.90;;;;;;5012463;28;20500;-57
2022/10/15 03:24:15;;;;;;;6.97;6.15;;;15.80;99.90;;;;;;5013478;28;20057;-57
2022/10/15 03:27:01;;;;;;;6.88;5.53;;;15.90;99.90;;;;;;5012712;28;20044;-58
2022/10/15 03:29:47;;;;;;;6.18;5.57;;;15.90;99.90;;;;;;4994212;28;20427;-58
2022/10/15 03:32:33;;;;;;;7.10;5.75;;;15.90;99.90;;;;;;4993466;28;20479;-60
2022/10/15 03:35:19;;;;;;;6.30;5.68;;;15.80;99.90;;;;;;4992205;28;20084;-57
2022/10/15 03:38:05;;;;;;;7.90;6.43;;;15.90;99.90;;;;;;4992590;28;20027;-58
2022/10/15 03:40:51;;;;;;;7.47;5.78;;;15.80;99.90;;;;;;4979369;28;20546;-57
2022/10/15 03:43:37;;;;;;;5.97;5.10;;;15.80;99.90;;;;;;5007752;28;20065;-59
2022/10/15 03:46:23;;;;;;;6.00;5.32;;;15.80;99.90;;;;;;4998892;28;20030;-54
2022/10/15 03:49:09;;;;;;;6.78;5.95;;;15.70;99.90;;;;;;5013139;28;20538;-59
2022/10/15 03:51:55;;;;;;;5.70;5.10;;;15.70;99.90;;;;;;5012443;28;20402;-59
2022/10/15 03:54:41;;;;;;;7.47;5.22;;;15.70;99.90;;;;;;4993848;28;20027;-59
2022/10/15 03:57:27;;;;;;;5.85;5.05;;;15.80;99.90;;;;;;5009145;28;20037;-57
2022/10/15 04:00:13;;;;;;;5.97;5.35;;;15.70;99.90;;;;;;5012223;28;20375;-57
2022/10/15 04:02:59;;;;;;;6.80;5.22;;;15.70;99.90;;;;;;4993889;28;20418;-60
2022/10/15 04:05:54;;;;;;;5.82;5.22;;;15.70;99.90;;;;;;4995174;28;20464;-60
2022/10/15 04:08:40;;;;;;;6.75;5.75;;;15.70;99.90;;;;;;5012012;28;20046;-59
2022/10/15 04:11:26;;;;;;;7.10;6.03;;;15.80;99.90;;;;;;4997996;28;20040;-58
2022/10/15 04:14:12;;;;;;;6.50;5.70;;;15.70;99.90;;;;;;5013167;28;20033;-60
2022/10/15 04:16:58;;;;;;;6.95;6.00;;;15.70;99.90;;;;;;5011740;28;20034;-55
2022/10/15 04:19:43;;;;;;;7.85;5.68;;;15.70;99.90;;;;;;5012456;28;20025;-60
2022/10/15 04:22:29;;;;;;;6.25;5.65;;;15.70;99.90;;;;;;5011570;28;20057;-59
2022/10/15 04:25:16;;;;;;;6.75;6.13;;;15.70;99.90;;;;;;5011940;28;20022;-58
2022/10/15 04:28:02;;;;;;;6.75;6.03;;;15.70;99.90;;;;;;4996925;28;20026;-58
2022/10/15 04:30:48;;;;;;;7.13;5.70;;;15.80;99.90;;;;;;5011175;28;20030;-58
2022/10/15 04:33:34;;;;;;;6.88;5.70;;;15.80;99.90;;;;;;4996934;28;20026;-59
2022/10/15 04:36:20;;;;;;;6.50;5.85;;;15.80;99.90;;;;;;5011952;28;20029;-58
2022/10/15 04:39:06;;;;;;;7.90;6.93;;;15.80;99.90;;;;;;5012454;28;20037;-56
2022/10/15 04:41:51;;;;;;;7.43;6.72;;;15.80;99.90;;;;;;4992867;28;20557;-57
2022/10/15 04:44:37;;;;;;;10.13;8.30;;;15.80;99.90;;;;;;4994055;28;20102;-59
2022/10/15 04:47:23;;;;;;;6.43;5.63;;;15.80;99.90;;;;;;5011240;28;20374;-58
2022/10/15 04:50:09;;;;;;;6.22;5.50;;;15.80;99.90;;;;;;5011317;28;20498;-57
2022/10/15 04:52:55;;;;;;;6.85;5.40;;;15.80;99.90;;;;;;5013040;28;20033;-57
2022/10/15 04:55:41;;;;;;;5.30;4.80;;;15.80;99.90;;;;;;5010745;28;20029;-59
2022/10/15 04:58:29;;;;;;;5.53;4.93;;;15.80;99.90;;;;;;5010446;28;20033;-57
2022/10/15 05:01:18;;;;;;;6.50;5.05;;;15.80;99.90;;;;;;5010356;28;20034;-57
2022/10/15 05:04:04;;;;;;;4.97;4.35;;;15.70;99.90;;;;;;5011861;28;20061;-57
2022/10/15 05:06:50;;;;;;;4.88;4.38;;;15.70;99.90;;;;;;4992555;28;20510;-57
2022/10/15 05:09:36;;;;;;;5.18;4.28;;;15.70;99.90;;;;;;4996376;28;20026;-58
2022/10/15 05:12:22;;;;;;;4.82;4.30;;;15.70;99.90;;;;;;5012032;28;20042;-59
2022/10/15 05:15:08;;;;;;;4.88;4.38;;;15.70;99.90;;;;;;4995940;28;20080;-58
2022/10/15 05:17:54;;;;;;;5.75;4.45;;;15.70;99.90;;;;;;5013067;28;20034;-58
2022/10/15 05:20:41;;;;;;;6.18;4.22;;;15.70;99.90;;;;;;5013505;28;20509;-59
2022/10/15 05:23:27;;;;;;;9.18;5.00;;;15.70;99.90;;;;;;5017126;28;20038;-56
2022/10/15 05:26:16;;;;;;;7.13;4.45;;;15.80;99.90;;;;;;4994612;28;20060;-55
2022/10/15 05:29:03;;;;;;;6.30;4.55;;;15.80;99.90;;;;;;4997586;28;20027;-59
2022/10/15 05:31:51;;;;;;;8.05;7.10;;;15.80;99.90;;;;;;5016463;28;20029;-58
2022/10/15 05:34:36;;;;;;;15.40;11.68;;;15.80;99.90;;;;;;5016159;28;20029;-55
2022/10/15 05:37:22;;;;;;;12.52;7.97;;;15.80;99.90;;;;;;5001795;28;20030;-57
2022/10/15 05:40:09;;;;;;;6.10;5.32;;;15.80;99.90;;;;;;5015998;28;20599;-58
2022/10/15 05:42:55;;;;;;;6.15;5.30;;;15.80;99.90;;;;;;5016158;28;20390;-56
2022/10/15 05:45:41;;;;;;;9.18;8.27;;;15.80;99.90;;;;;;5016486;28;20561;-60
2022/10/15 05:48:27;;;;;;;7.50;5.70;;;15.80;99.90;;;;;;5016049;28;20041;-59
2022/10/15 05:51:13;;;;;;;7.78;5.95;;;15.80;99.90;;;;;;5015048;28;20022;-58
2022/10/15 05:53:59;;;;;;;16.70;13.38;;;15.80;99.90;;;;;;5015616;28;20105;-59
2022/10/15 05:56:45;;;;;;;10.25;9.15;;;15.90;99.90;;;;;;5015491;28;20105;-58
2022/10/15 05:59:31;;;;;;;6.47;5.18;;;15.80;99.90;;;;;;5015273;28;20524;-59
2022/10/15 06:02:17;;;;;;;5.32;4.82;;;15.80;99.90;;;;;;5013418;28;20030;-58
2022/10/15 06:05:03;;;;;;;6.82;6.13;;;15.90;99.90;;;;;;5015685;28;20044;-56
2022/10/15 06:07:49;;;;;;;5.60;5.10;;;15.80;99.90;;;;;;5013699;28;20069;-58
2022/10/15 06:10:36;;;;;;;5.25;4.50;;;15.80;99.90;;;;;;5015529;28;20084;-56
2022/10/15 06:13:22;;;;;;;5.53;4.38;;;15.80;99.90;;;;;;5015301;28;20505;-58
2022/10/15 06:16:09;;;;;;;5.20;4.35;;;15.80;99.90;;;;;;5001144;28;20057;-60
2022/10/15 06:18:55;;;;;;;5.38;4.85;;;15.90;99.90;;;;;;5001067;28;20422;-55
2022/10/15 06:21:41;;;;;;;8.55;6.88;;;15.90;99.90;;;;;;5000875;28;20112;-57
2022/10/15 06:24:26;;;;;;;6.25;5.65;;;15.90;99.90;;;;;;5015425;28;20454;-59
2022/10/15 06:27:13;;;;;;;5.35;4.45;;;15.90;99.90;;;;;;5015325;28;20448;-57
2022/10/15 06:29:58;;;;;;;6.45;4.63;;;15.90;99.90;;;;;;5014485;28;20037;-57
2022/10/15 06:32:52;;;;;;;5.35;4.82;;;15.80;99.90;;;;;;5013793;28;20490;-59
2022/10/15 06:35:39;;;;;;;5.30;4.80;;;15.80;99.90;;;;;;5014262;28;20029;-57
2022/10/15 06:38:25;;;;;;;10.95;8.68;;;15.80;99.90;;;;;;5013562;28;20397;-58
2022/10/15 06:41:12;;;;;;;15.57;12.50;;;15.90;99.90;;;;;;5013486;28;20105;-56
2022/10/15 06:43:58;;;;;;;10.50;8.73;;;15.90;99.90;;;;;;5013778;28;20108;-55
2022/10/15 06:46:44;;;;;;;10.13;6.72;;;15.90;99.90;;;;;;5016556;28;20502;-58
2022/10/15 06:49:30;;;;;;;6.72;5.47;;;16.00;99.90;;;;;;5014118;28;20022;-55
2022/10/15 06:52:16;;;;;;;6.97;5.82;;;15.90;99.90;;;;;;5013857;28;20563;-57
2022/10/15 06:55:03;;;;;;;7.10;6.13;;;15.90;99.90;;;;;;4999280;28;20414;-58
2022/10/15 06:57:49;;;;;;;6.32;5.45;;;15.90;99.90;;;;;;5014117;28;20072;-58
2022/10/15 07:00:35;;;;;;;9.13;7.00;;;16.00;99.90;;;;;;5003571;28;20095;-55
2022/10/15 07:03:21;;;;;;;6.70;6.00;;;16.00;99.90;;;;;;5007123;28;20049;-54
2022/10/15 07:06:08;;;;;;;14.05;12.05;;;16.00;99.90;;;;;;5018050;28;20029;-58
2022/10/15 07:08:54;;;;;;;9.40;8.13;;;16.10;99.90;;;;;;5013246;28;20028;-58
2022/10/15 07:11:40;;;;;;;8.30;7.50;;;16.00;99.90;;;;;;5012848;28;20037;-60
2022/10/15 07:14:26;;;;;;;7.57;6.80;;;16.00;99.90;;;;;;5014370;28;20037;-58
2022/10/15 07:17:12;;;;;;;9.27;7.70;;;16.00;99.90;;;;;;5013667;28;20030;-59
2022/10/15 07:19:58;;;;;;;7.40;6.07;;;16.10;99.90;;;;;;5013633;28;20034;-58
2022/10/15 07:22:44;;;;;;;7.75;6.95;;;16.10;99.90;;;;;;4994473;28;20034;-57
2022/10/15 07:25:30;;;;;;;9.20;7.93;;;16.10;99.90;;;;;;5004281;28;20776;-57
2022/10/15 07:28:16;;;;;;;9.18;8.18;;;16.10;99.90;;;;;;5012605;28;20025;-58
2022/10/15 07:31:04;;;;;;;9.88;8.48;;;16.00;99.90;;;;;;5012231;28;20030;-58
2022/10/15 07:33:50;;;;;;;8.95;8.05;;;15.90;99.90;;;;;;5012883;28;20033;-58
2022/10/15 07:36:36;;;;;;;8.55;7.20;;;16.00;99.90;;;;;;5012362;28;20030;-57
2022/10/15 07:39:22;;;;;;;7.82;7.03;;;16.00;99.90;;;;;;5009294;28;20113;-59
2022/10/15 07:42:08;;;;;;;6.15;5.55;;;16.20;99.90;;;;;;5013633;28;20030;-58
2022/10/15 07:44:57;;;;;;;9.50;8.50;;;16.40;99.90;;;;;;5012667;28;20026;-60
2022/10/15 07:47:45;;;;;;;7.03;6.30;;;16.50;99.90;;;;;;4998447;28;20022;-60
2022/10/15 07:50:31;;;;;;;10.05;7.40;;;16.50;99.90;;;;;;4998322;28;20036;-59
2022/10/15 07:53:17;;;;;;;9.18;7.65;;;16.50;99.90;;;;;;5012778;28;20030;-58
2022/10/15 07:56:06;;;;;;;7.50;6.57;;;16.40;99.90;;;;;;5011844;28;20105;-57
2022/10/15 07:58:52;;;;;;;7.75;6.60;;;16.40;99.90;;;;;;5011790;28;20391;-57
2022/10/15 08:01:38;;;;;;;7.10;6.30;;;16.40;99.90;;;;;;4997939;28;20024;-57
2022/10/15 08:04:24;;;;;;;5.93;5.00;;;16.40;99.90;;;;;;5012936;28;20033;-57
2022/10/15 08:07:10;;;;;;;8.07;5.50;;;16.30;99.90;;;;;;5011686;28;20041;-56
2022/10/15 08:09:56;;;;;;;5.95;5.35;;;16.30;99.90;;;;;;4997243;28;20030;-57
2022/10/15 08:12:42;;;;;;;12.75;9.43;;;16.30;99.90;;;;;;5011974;28;20072;-56
2022/10/15 08:15:28;;;;;;;7.80;6.60;;;16.40;99.90;;;;;;5011154;28;20044;-59
2022/10/15 08:18:14;;;;;;;6.90;5.70;;;16.50;99.90;;;;;;5011204;28;20038;-58
2022/10/15 08:21:00;;;;;;;6.53;4.80;;;16.70;99.90;;;;;;5012450;28;20044;-58
2022/10/15 08:23:46;;;;;;;5.25;4.75;;;16.70;99.90;;;;;;4996023;28;20084;-58
2022/10/15 08:26:33;;;;;;;8.13;5.28;;;16.80;99.90;;;;;;4994283;28;20057;-59
2022/10/15 08:29:19;;;;;;;5.10;4.45;;;16.80;99.90;;;;;;5008576;28;20030;-58
2022/10/15 08:32:05;;;;;;;5.65;4.78;;;16.60;99.90;;;;;;4995585;28;20030;-57
2022/10/15 08:34:51;;;;;;;5.20;4.70;;;16.60;99.90;;;;;;5011916;28;20048;-59
2022/10/15 08:37:37;;;;;;;5.93;5.00;;;16.40;99.90;;;;;;5011625;28;20386;-58
2022/10/15 08:40:23;;;;;;;5.15;4.65;;;16.40;99.90;;;;;;5012002;28;20044;-56
2022/10/15 08:43:21;;;;;;;7.13;5.18;;;16.40;99.90;;;;;;4989470;28;20030;-58
2022/10/15 08:46:35;;;;;;;8.73;5.50;;;16.30;99.90;;;;;;4992043;28;20034;-58
2022/10/15 08:50:02;;;;;;;6.60;5.78;;;16.30;99.90;;;;;;5011746;28;20022;-57
2022/10/15 08:52:50;;;;;;;6.93;5.93;;;16.40;99.90;;;;;;4982796;28;20041;-56
2022/10/15 08:55:39;;;;;;;7.18;5.93;;;16.30;99.90;;;;;;5006960;28;20026;-59
2022/10/15 08:58:54;;;;;;;6.07;5.15;;;16.30;99.90;;;;;;5012768;28;20029;-58
2022/10/15 09:02:09;;;;;;;6.50;4.65;;;16.30;99.90;;;;;;4996619;28;20498;-58
2022/10/15 09:05:02;;;;;;;6.05;4.80;;;16.30;99.90;;;;;;4992152;28;20072;-56
2022/10/15 09:08:33;;;;;;;5.10;4.60;;;16.50;99.90;;;;;;5012223;28;20030;-59
2022/10/15 09:11:52;;;;;;;5.75;4.40;;;16.60;99.90;;;;;;5004510;28;20111;-59
2022/10/15 09:14:42;;;;;;;5.43;4.38;;;16.70;99.90;;;;;;5011258;28;20038;-58
2022/10/15 09:17:31;;;;;;;5.32;4.80;;;16.60;99.90;;;;;;5012456;28;20491;-57
2022/10/15 09:20:23;;;;;;;5.38;4.47;;;16.70;99.90;;;;;;4997816;28;20232;-61
2022/10/15 09:23:22;;;;;;;8.00;4.97;;;16.80;99.90;;;;;;4997200;28;20184;-59
2022/10/15 09:26:31;;;;;;;5.88;4.15;;;16.80;99.90;;;;;;4996616;28;20076;-60
2022/10/15 09:29:38;;;;;;;8.23;4.05;;;16.70;99.90;;;;;;5008130;28;20106;-57
2022/10/15 09:32:34;;;;;;;4.63;4.10;;;16.70;99.90;;;;;;5006286;28;20173;-58
2022/10/15 09:35:28;;;;;;;4.85;3.95;;;16.60;99.90;;;;;;5009573;28;20022;-62
2022/10/15 09:38:56;;;;;;;4.93;3.47;;;16.70;99.90;;;;;;4997280;28;20571;-57
2022/10/15 09:42:10;;;;;;;5.60;3.53;;;16.80;99.90;;;;;;4943993;28;20513;-60
2022/10/15 09:45:10;;;;;;;3.58;3.03;;;16.80;99.90;;;;;;5010693;28;20037;-58
2022/10/15 09:48:02;;;;;;;3.00;2.70;;;16.90;99.90;;;;;;4995948;28;20030;-59
2022/10/15 09:51:01;;;;;;;2.83;2.50;;;17.10;99.90;;;;;;4991996;28;20097;-59
2022/10/15 09:53:56;;;;;;;3.70;2.60;;;17.20;99.90;;;;;;5000634;28;20057;-60
2022/10/15 09:56:47;;;;;;;5.13;2.85;;;17.20;99.90;;;;;;5010645;28;20037;-61
2022/10/15 09:59:33;;;;;;;2.85;2.65;;;17.20;99.90;;;;;;5010903;28;20045;-58
2022/10/15 10:02:21;;;;;;;2.42;2.22;;;17.20;99.90;;;;;;5011626;28;20088;-55
2022/10/15 10:05:30;;;;;;;2.92;2.38;;;17.30;99.90;;;;;;5010083;28;20490;-53
2022/10/15 10:08:21;;;;;;;3.30;2.40;;;17.20;99.90;;;;;;5012180;28;20112;-56
2022/10/15 10:11:10;;;;;;;2.80;2.60;;;17.30;99.90;;;;;;5015199;28;20038;-52
2022/10/15 10:13:59;;;;;;;2.53;2.33;;;17.10;99.90;;;;;;4996748;28;20044;-56
2022/10/15 10:17:04;;;;;;;4.45;2.10;;;17.30;99.90;;;;;;4993050;28;20099;-49
2022/10/15 10:20:08;;;;;;;3.33;2.17;;;17.30;99.90;;;;;;5010087;28;20026;-57
2022/10/15 10:22:57;;;;;;;3.03;2.40;;;17.40;99.90;;;;;;5015683;28;20060;-56
2022/10/15 10:25:43;;;;;;;3.03;2.10;;;17.40;99.90;;;;;;4993445;28;20439;-54
2022/10/15 10:29:04;;;;;;;3.08;2.10;;;17.40;99.90;;;;;;5008097;28;20082;-51
2022/10/15 10:31:51;;;;;;;3.50;2.72;;;17.30;99.90;;;;;;4997236;28;20034;-55
2022/10/15 10:34:37;;;;;;;3.05;2.75;;;17.30;99.90;;;;;;5008852;28;20081;-54
2022/10/15 10:37:24;;;;;;;2.65;2.30;;;17.60;99.90;;;;;;5013734;28;20022;-52
2022/10/15 10:40:34;;;;;;;2.45;2.25;;;17.70;99.90;;;;;;4999965;28;20072;-53
2022/10/15 10:43:29;;;;;;;2.40;2.20;;;17.90;99.90;;;;;;4994409;28;20081;-54
2022/10/15 10:46:14;;;;;;;2.58;2.17;;;17.70;99.90;;;;;;5014060;28;20100;-53
2022/10/15 10:49:00;;;;;;;2.30;2.10;;;17.90;99.90;;;;;;4998107;28;20371;-50
2022/10/15 10:51:49;;;;;;;2.40;2.20;;;17.70;99.90;;;;;;4997862;28;20077;-55
2022/10/15 10:54:36;;;;;;;2.30;2.10;;;17.70;99.90;;;;;;4987064;28;20494;-56
2022/10/15 10:57:31;;;;;;;2.08;1.92;;;17.60;99.90;;;;;;5013229;28;20038;-54
2022/10/15 11:00:23;;;;;;;;;;;17.70;99.90;;;;;;5013575;28;20057;-55
2022/10/15 11:03:27;;;;;;;3.67;2.30;;;17.90;99.90;;;;;;5013125;28;19960;-52
2022/10/15 11:06:13;;;;;;;3.42;1.92;;;17.90;99.90;;;;;;5013080;28;20537;-54
2022/10/15 11:09:05;;;;;;;3.38;1.90;;;17.80;99.90;;;;;;4998519;28;20664;-49
2022/10/15 11:12:00;;;;;;;2.80;1.70;;;17.80;99.90;;;;;;4997778;28;20029;-51
2022/10/15 11:15:04;;;;;;;3.08;2.00;;;17.90;99.90;;;;;;5013555;28;20033;-55
2022/10/15 11:18:44;;;;;;;2.83;2.40;;;17.90;99.90;;;;;;5011520;28;20030;-56
2022/10/15 11:21:57;;;;;;;2.35;2.15;;;17.90;99.90;;;;;;5009099;28;20502;-56
2022/10/15 11:24:58;;;;;;;3.97;2.50;;;17.80;99.90;;;;;;5012724;28;20080;-56
2022/10/15 11:28:06;;;;;;;2.65;2.33;;;17.90;99.90;;;;;;5012599;28;20406;-55
2022/10/15 11:31:10;;;;;;;2.72;2.13;;;17.90;99.90;;;;;;5012110;28;20073;-56
2022/10/15 11:34:24;;;;;;;2.30;2.10;;;17.90;99.90;;;;;;5006603;28;20068;-55
2022/10/15 11:37:29;;;;;;;3.63;2.10;;;17.90;99.90;;;;;;5011998;28;20069;-57
2022/10/15 11:40:52;;;;;;;2.60;2.10;;;17.90;99.90;;;;;;5013610;28;20036;-61
2022/10/15 11:43:50;;;;;;;3.65;2.13;;;18.00;99.90;;;;;;4996768;28;20026;-50
2022/10/15 11:46:57;;;;;;;2.80;2.33;;;18.00;99.90;;;;;;5012096;28;20033;-50
2022/10/15 11:50:24;;;;;;;4.22;2.47;;;18.20;99.90;;;;;;5011417;28;20105;-55
2022/10/15 11:53:46;;;;;;;2.67;2.40;;;18.10;99.90;;;;;;5003616;28;20057;-56
2022/10/15 11:56:44;;;;;;;7.57;4.70;;;18.20;99.90;;;;;;5000237;28;20045;-58
2022/10/15 11:59:46;;;;;;;4.50;2.35;;;18.30;99.90;;;;;;5013988;28;20037;-52
2022/10/15 12:02:35;;;;;;;3.40;2.97;;;18.40;99.90;;;;;;5011550;28;20513;-55
2022/10/15 12:05:34;;;;;;;3.05;2.25;;;18.30;99.90;;;;;;5011168;28;20049;-57
2022/10/15 12:08:22;;;;;;;3.47;2.65;;;18.60;99.90;;;;;;5011265;28;20034;-58
2022/10/15 12:11:41;;;;;;;2.40;2.20;;;18.60;99.90;;;;;;5011760;28;20085;-56
2022/10/15 12:14:46;;;;;;;2.03;1.90;;;18.70;99.90;;;;;;5011457;28;20030;-55
2022/10/15 12:18:00;;;;;;;3.08;2.28;;;18.70;99.90;;;;;;5011781;28;20029;-59
2022/10/15 12:20:46;;;;;;;2.20;2.00;;;18.80;99.90;;;;;;5011677;28;20100;-57
2022/10/15 12:23:35;;;;;;;2.55;2.00;;;18.90;99.90;;;;;;5008313;28;20084;-60
2022/10/15 12:26:33;;;;;;;3.65;1.90;;;19.20;99.90;;;;;;5009809;28;20081;-59
2022/10/15 12:29:22;;;;;;;3.15;1.88;;;19.40;99.90;;;;;;5014841;28;20034;-58
2022/10/15 12:32:26;;;;;;;2.78;1.83;;;19.50;99.90;;;;;;5011989;28;20025;-55
2022/10/15 12:35:15;;;;;;;1.88;1.77;;;19.40;99.90;;;;;;5010937;28;20025;-56
2022/10/15 12:38:18;;;;;;;2.22;1.90;;;19.30;99.90;;;;;;5010744;28;20042;-48
2022/10/15 12:41:10;;;;;;;3.28;1.90;;;19.20;99.90;;;;;;5013754;28;20490;-56
2022/10/15 12:44:22;;;;;;;1.73;1.63;;;19.20;99.90;;;;;;5017186;28;20038;-58
2022/10/15 12:47:09;;;;;;;2.33;1.50;;;19.20;99.90;;;;;;5020178;28;20034;-58
2022/10/15 12:50:04;;;;;;;1.88;1.77;;;19.20;99.40;;;;;;5016826;28;20040;-56
2022/10/15 12:52:57;;;;;;;2.17;1.58;;;19.30;99.30;;;;;;5013193;28;20402;-54
2022/10/15 12:55:43;;;;;;;2.03;1.50;;;19.30;98.70;;;;;;4998763;28;20029;-56
2022/10/15 12:58:37;;;;;;;1.95;1.55;;;19.50;98.50;;;;;;4998469;28;20030;-53
2022/10/15 13:01:26;;;;;;;1.50;1.40;;;19.50;97.90;;;;;;5010694;28;20036;-51
2022/10/15 13:04:12;;;;;;;1.70;1.60;;;19.40;98.00;;;;;;5012028;28;20077;-53
2022/10/15 13:07:02;;;;;;;2.08;1.50;;;19.40;98.20;;;;;;4997628;28;20113;-59
2022/10/15 13:09:48;;;;;;;2.38;1.45;;;19.30;98.70;;;;;;4995892;28;20557;-56
2022/10/15 13:12:34;;;;;;;1.58;1.30;;;19.40;98.30;;;;;;5010983;28;20025;-53
2022/10/15 13:15:26;;;;;;;2.03;1.88;;;19.40;98.60;;;;;;5010493;28;20080;-52
2022/10/15 13:18:12;;;;;;;1.58;1.30;;;19.40;98.50;;;;;;5009510;28;20116;-53
2022/10/15 13:20:59;;;;;;;1.67;1.58;;;19.60;98.20;;;;;;5010801;28;20049;-53
2022/10/15 13:23:50;;;;;;;1.48;1.35;;;19.80;97.80;;;;;;5010378;28;20025;-56
2022/10/15 13:26:36;;;;;;;1.88;1.30;;;19.90;97.80;;;;;;5010903;28;20077;-54
2022/10/15 13:29:24;;;;;;;2.83;1.35;;;20.40;97.00;;;;;;4996478;28;20026;-56
2022/10/15 13:32:14;;;;;;;1.52;1.42;;;20.40;96.80;;;;;;5012641;28;20022;-54
2022/10/15 13:35:07;;;;;;;1.60;1.50;;;20.40;96.90;;;;;;5009669;28;20518;-56
2022/10/15 13:37:58;;;;;;;1.70;1.60;;;20.60;96.50;;;;;;5011060;28;20037;-55
2022/10/15 13:40:48;;;;;;;1.48;1.38;;;20.80;96.10;;;;;;5010688;28;20037;-57
2022/10/15 13:43:34;;;;;;;1.40;1.30;;;20.70;96.40;;;;;;5015709;28;20030;-54
2022/10/15 13:46:23;;;;;;;1.55;1.45;;;20.90;96.20;;;;;;5014084;28;20030;-53
2022/10/15 13:49:12;;;;;;;1.63;1.50;;;21.00;96.10;;;;;;5013613;28;20030;-54
2022/10/15 13:51:58;;;;;;;2.33;1.60;;;21.30;95.90;;;;;;5013019;28;20030;-53
2022/10/15 13:54:45;;;;;;;2.10;1.65;;;21.50;95.40;;;;;;5014330;28;20106;-57
2022/10/15 13:57:31;;;;;;;1.80;1.70;;;21.70;95.10;;;;;;5013937;28;20036;-53
2022/10/15 14:00:28;;;;;;;2.33;1.58;;;21.60;95.40;;;;;;5014440;28;20549;-58
2022/10/15 14:03:23;;;;;;;1.77;1.67;;;21.50;95.10;;;;;;4999745;28;20070;-53
2022/10/15 14:06:22;;;;;;;2.08;1.88;;;21.10;95.80;;;;;;5014040;28;20583;-55
2022/10/15 14:09:22;;;;;;;1.50;1.40;;;20.80;96.10;;;;;;5014636;28;20053;-55
2022/10/15 14:12:10;;;;;;;1.75;1.65;;;20.60;96.00;;;;;;4995527;28;20398;-54
2022/10/15 14:15:35;;;;;;;1.77;1.67;;;20.40;96.70;;;;;;4997756;28;20034;-54
2022/10/15 14:18:34;;;;;;;1.65;1.55;;;20.20;96.90;;;;;;5013173;28;20133;-54
2022/10/15 14:21:31;;;;;;;1.80;1.50;;;20.00;97.00;;;;;;5013526;28;20142;-55
2022/10/15 14:24:23;;;;;;;1.95;1.77;;;19.90;97.20;;;;;;5013502;28;20038;-51
2022/10/15 14:27:21;;;;;;;1.70;1.60;;;20.10;97.30;;;;;;4999193;28;20032;-52
2022/10/15 14:30:14;;;;;;;1.85;1.75;;;20.20;97.00;;;;;;5013394;28;20026;-52
2022/10/15 14:33:00;;;;;;;1.65;1.55;;;20.20;97.30;;;;;;4999646;28;20030;-57
2022/10/15 14:36:22;;;;;;;1.50;1.40;;;20.30;97.10;;;;;;5013094;28;20030;-56
2022/10/15 14:39:28;;;;;;;1.60;1.50;;;20.60;96.70;;;;;;5013930;28;20618;-57
2022/10/15 14:42:30;;;;;;;1.92;1.70;;;20.70;96.30;;;;;;4999193;28;20041;-59
2022/10/15 14:45:30;;;;;;;3.40;2.00;;;20.70;96.70;;;;;;5012773;28;20052;-51
2022/10/15 14:48:24;;;;;;;1.75;1.65;;;20.90;96.40;;;;;;5012216;28;20034;-56
2022/10/15 14:51:24;;;;;;;4.13;1.83;;;20.80;96.40;;;;;;5012799;28;20041;-53
2022/10/15 14:54:24;;;;;;;3.15;1.70;;;20.60;96.60;;;;;;5013086;28;20029;-55